Terminal Aerodrome Forecast
Issued by NWS

Home | Current Version | Previous Version | Text Only | Print | Product List | Glossary On
Versions: 1 2 3 4 5 6 7 8 9 10 11 12 13 14 15 16 17 18 19 20 21 22 23 24 25 26 27 28 29 30 31 32 33 34 35 36 37 38
832
FTUS45 KBOU 191954 AAA
TAFAPA
TAF AMD
KAPA 191954Z 1920/2018 11005KT P6SM FEW220
     FM192100 13006KT P6SM FEW220
     FM200100 16007KT P6SM SCT120 BKN200
     FM200300 20008KT P6SM SCT110 BKN180
     FM200900 22008KT P6SM VCSH SCT040 BKN070 OVC120 PROB30
      2011/2012 5SM -SHSN BKN030 OVC050
     FM201600 VRB06KT P6SM SCT040 OVC090=

USA.gov is the U.S. government's official web portal to all federal, state and local government web resources and services.